International Virtual Aviation Organisation

Russian Federation and Kazakhstan MCD

 

Карточка аэропорта UUDD

Внимание!
Информация на этой странице в стадии наполнения.
Если вы не увидели какой-то информации, или заметили неточность - пожалуйста сообщите нам!
Спасибо!
Команда RU-STAFF
Название аэропортаДомодедово
Название аэропорта (англ.)Domodedovo
Превышение594 ft. (181.1 m.)
Координаты55°24.516', 37°54.384'
Высота перехода10000 ft
Эшелон переходаFL110
Коды ответчика1540-1577
Зона ОрВДМосква РПИ (UUWV)
Данные METARUUDD 032000Z 15005MPS 2600 -SHSN BKN025CB M05/M07 Q1032 R14R/490237 TEMPO 1000 SHSN
Проноз погоды (TAF)UUDD 031952Z 0321/0503 15005MPS 3100 -SN BKN016 TXM03/0412Z TNM07/0403Z TEMPO 0321/0407 1000 SHSN FEW006 BKN010CB BECMG 0407/0409 9999 NSW BKN020
NOTAMshow/hide NOTAM
AWOS   TABLE

Информация о ВПП

ВПП Длина ВПП (м.) Покрытие Курс ВПП Частота ILS
14L2370Железобетон135 
32R2370Железобетон315 
14R3500Цементобетон135110.1
32L3500Цементобетон315109.3
143800Цементобетон135108.5
323800Цементобетон315111.9

Диспетчерские позиции

Позывной Наименование органа УВД Частота
UUDD_APPДомодедово-Прилет129.800
UUDD_DELДомодедово-Деливери 129.150
UUDD_DEPДомодедово-Вылет132.050
UUDD_D_APPДомодедово-Прилет127.700
UUDD_GNDДомодедово-Перрон123.750
UUDD_GNDДомодедово-Перрон119.000
UUDD_TWRДомодедово-Вышка118.600
UUDD_TWRДомодедово-Вышка119.700



Спутниковое изображение